Time;durP1;ratioP1;P1;durP2;ratioP2;P2;SDS_P1;SDS_P2;PMS_P1;PMS_P2;Temp;Humidity;BMP_temperature;BMP_pressure;BME280_temperature;BME280_humidity;BME280_pressure;Samples;Min_cycle;Max_cycle;Signal;HPM_P1;HPM_P2
2022/04/08 00:01:22;;;;;;;10.82;1.38;;;6.10;99.90;;;;;;5083455;28;20430;-37
2022/04/08 00:03:48;;;;;;;8.63;1.42;;;6.20;99.90;;;;;;5086244;28;20028;-31
2022/04/08 00:06:14;;;;;;;11.85;1.92;;;6.20;99.90;;;;;;5092942;28;20146;-36
2022/04/08 00:08:40;;;;;;;3.67;0.73;;;6.20;99.90;;;;;;5093592;28;20024;-37
2022/04/08 00:11:06;;;;;;;11.52;1.92;;;6.20;99.90;;;;;;5093030;28;20487;-36
2022/04/08 00:13:31;;;;;;;8.50;1.17;;;6.20;99.90;;;;;;5092653;28;20366;-36
2022/04/08 00:15:57;;;;;;;12.27;1.42;;;6.20;99.90;;;;;;5091072;28;20024;-44
2022/04/08 00:18:23;;;;;;;8.68;1.35;;;6.20;99.90;;;;;;5093560;28;20404;-36
2022/04/08 00:20:49;;;;;;;15.40;1.85;;;6.20;99.90;;;;;;5091645;28;20016;-36
2022/04/08 00:23:15;;;;;;;12.10;1.30;;;6.10;99.90;;;;;;5092317;28;20027;-36
2022/04/08 00:25:41;;;;;;;10.60;1.40;;;6.10;99.90;;;;;;5090289;28;20016;-36
2022/04/08 00:28:07;;;;;;;6.38;0.95;;;6.00;99.90;;;;;;5092340;28;20476;-35
2022/04/08 00:30:32;;;;;;;3.58;0.65;;;6.00;99.90;;;;;;5091621;28;20085;-37
2022/04/08 00:32:58;;;;;;;8.45;1.40;;;6.00;99.90;;;;;;5092922;28;20050;-37
2022/04/08 00:35:24;;;;;;;14.48;1.42;;;6.00;99.90;;;;;;5092656;28;20118;-35
2022/04/08 00:37:50;;;;;;;6.78;1.52;;;6.00;99.90;;;;;;5091284;28;20097;-37
2022/04/08 00:40:16;;;;;;;9.60;1.17;;;6.00;99.90;;;;;;5093091;28;20024;-35
2022/04/08 00:42:42;;;;;;;3.80;1.08;;;6.00;99.90;;;;;;5091651;28;20081;-33
2022/04/08 00:45:09;;;;;;;15.13;1.80;;;6.00;99.90;;;;;;5091289;28;20111;-36
2022/04/08 00:47:36;;;;;;;9.77;2.28;;;6.10;99.90;;;;;;5091884;28;20475;-36
2022/04/08 00:50:03;;;;;;;11.25;1.75;;;6.00;99.90;;;;;;5093636;28;20032;-36
2022/04/08 00:52:33;;;;;;;8.88;1.45;;;6.00;99.90;;;;;;5091906;28;20483;-36
2022/04/08 00:54:58;;;;;;;17.23;1.38;;;5.90;99.90;;;;;;5092459;28;20073;-36
2022/04/08 00:57:24;;;;;;;5.15;1.48;;;5.90;99.90;;;;;;5091186;28;20032;-36
2022/04/08 00:59:50;;;;;;;10.38;1.23;;;5.90;99.90;;;;;;5092298;28;20531;-37
2022/04/08 01:02:16;;;;;;;16.70;2.35;;;5.80;99.90;;;;;;5080489;28;20096;-41
2022/04/08 01:04:41;;;;;;;8.77;1.27;;;5.80;99.90;;;;;;5084930;28;20169;-38
2022/04/08 01:07:07;;;;;;;17.70;1.80;;;5.70;99.90;;;;;;5092538;28;20548;-55
2022/04/08 01:09:33;;;;;;;11.52;1.58;;;5.70;99.90;;;;;;5091065;28;20472;-35
2022/04/08 01:12:02;;;;;;;30.73;2.20;;;5.70;99.90;;;;;;5092033;28;20495;-37
2022/04/08 01:14:28;;;;;;;6.93;1.35;;;5.60;99.90;;;;;;5091835;28;20487;-36
2022/04/08 01:16:53;;;;;;;13.52;1.45;;;5.70;99.90;;;;;;5091698;28;20020;-37
2022/04/08 01:19:19;;;;;;;9.35;1.42;;;5.80;99.90;;;;;;5092236;28;20024;-37
2022/04/08 01:21:44;;;;;;;12.68;0.90;;;5.70;99.90;;;;;;5091874;28;20484;-36
2022/04/08 01:24:14;;;;;;;11.98;1.92;;;5.70;99.90;;;;;;5090053;28;20476;-36
2022/04/08 01:26:43;;;;;;;15.15;1.13;;;5.70;99.90;;;;;;5092568;28;20035;-37
2022/04/08 01:29:12;;;;;;;14.55;1.67;;;5.60;99.90;;;;;;5091561;28;20468;-37
2022/04/08 01:31:43;;;;;;;9.38;2.00;;;5.60;99.90;;;;;;5091428;28;20035;-36
2022/04/08 01:34:09;;;;;;;7.50;1.27;;;5.70;99.90;;;;;;5091326;28;20070;-37
2022/04/08 01:36:35;;;;;;;12.05;1.13;;;5.70;99.90;;;;;;5091669;28;20051;-36
2022/04/08 01:39:00;;;;;;;8.88;1.05;;;5.70;99.90;;;;;;5092410;28;20027;-35
2022/04/08 01:41:28;;;;;;;10.57;1.17;;;5.70;99.90;;;;;;5092915;28;20063;-42
2022/04/08 01:43:53;;;;;;;12.35;1.67;;;5.60;99.90;;;;;;5091549;28;20500;-36
2022/04/08 01:46:19;;;;;;;10.02;1.58;;;5.60;99.90;;;;;;5091149;28;20115;-37
2022/04/08 01:48:44;;;;;;;9.25;2.50;;;5.60;99.90;;;;;;5091732;28;20027;-37
2022/04/08 01:51:10;;;;;;;7.20;1.23;;;5.60;99.90;;;;;;5090821;28;20531;-37
2022/04/08 01:53:36;;;;;;;8.70;0.82;;;5.60;99.90;;;;;;5092755;28;20048;-40
2022/04/08 01:56:01;;;;;;;11.27;1.08;;;5.60;99.90;;;;;;5091582;28;20445;-37
2022/04/08 01:58:27;;;;;;;2.42;0.68;;;5.60;99.90;;;;;;5094818;28;20024;-36
2022/04/08 02:00:52;;;;;;;4.30;1.25;;;5.60;99.90;;;;;;5096370;28;20017;-36
2022/04/08 02:03:20;;;;;;;5.35;1.05;;;5.60;99.90;;;;;;5095046;28;20021;-43
2022/04/08 02:05:46;;;;;;;10.32;1.08;;;5.60;99.90;;;;;;5094672;28;20016;-35
2022/04/08 02:08:12;;;;;;;17.30;1.50;;;5.60;99.90;;;;;;5096253;28;20020;-45
2022/04/08 02:10:37;;;;;;;20.83;2.10;;;5.70;99.90;;;;;;5086384;28;20555;-36
2022/04/08 02:13:03;;;;;;;7.53;1.80;;;5.70;99.90;;;;;;5093042;28;20099;-36
2022/04/08 02:15:33;;;;;;;3.50;0.85;;;5.70;99.90;;;;;;5095799;28;20115;-45
2022/04/08 02:18:00;;;;;;;3.78;0.75;;;5.70;99.90;;;;;;5094678;28;20584;-36
2022/04/08 02:20:30;;;;;;;6.82;1.45;;;5.80;99.90;;;;;;5096007;28;20024;-36
2022/04/08 02:22:57;;;;;;;5.13;0.82;;;5.90;99.90;;;;;;5093123;28;20078;-37
2022/04/08 02:25:22;;;;;;;7.53;1.08;;;5.80;99.90;;;;;;5095353;28;20492;-35
2022/04/08 02:27:51;;;;;;;6.82;0.88;;;5.60;99.90;;;;;;5094224;28;20068;-38
2022/04/08 02:30:16;;;;;;;3.38;0.68;;;5.50;99.90;;;;;;5094427;28;20036;-36
2022/04/08 02:33:04;;;;;;;5.70;1.35;;;5.30;99.90;;;;;;5093893;28;20039;-36
2022/04/08 02:35:31;;;;;;;0.82;0.52;;;5.10;99.90;;;;;;5094358;28;20157;-35
2022/04/08 02:37:59;;;;;;;1.60;0.93;;;5.10;99.90;;;;;;5093982;28;20027;-36
2022/04/08 02:40:25;;;;;;;7.57;1.33;;;5.10;99.90;;;;;;5095153;28;20077;-36
2022/04/08 02:42:51;;;;;;;6.38;1.45;;;5.10;99.90;;;;;;5092312;28;20028;-36
2022/04/08 02:45:17;;;;;;;6.10;0.85;;;5.10;99.90;;;;;;5094592;28;20498;-36
2022/04/08 02:47:44;;;;;;;5.10;1.33;;;5.00;99.90;;;;;;5095830;28;20028;-42
2022/04/08 02:50:10;;;;;;;10.73;1.10;;;5.00;99.90;;;;;;5095771;28;20387;-38
2022/04/08 02:52:36;;;;;;;8.95;1.05;;;5.00;99.90;;;;;;5094098;28;20027;-36
2022/04/08 02:55:05;;;;;;;5.63;1.02;;;4.90;99.90;;;;;;5094115;28;20034;-37
2022/04/08 02:57:31;;;;;;;6.45;0.75;;;4.90;99.90;;;;;;5093449;28;20024;-35
2022/04/08 02:59:59;;;;;;;11.90;1.33;;;4.90;99.90;;;;;;5095196;28;20069;-37
2022/04/08 03:02:25;;;;;;;2.92;0.77;;;4.90;99.90;;;;;;5094370;28;20079;-38
2022/04/08 03:04:51;;;;;;;8.93;1.30;;;4.90;99.90;;;;;;5094683;28;20051;-36
2022/04/08 03:07:17;;;;;;;4.28;1.92;;;4.90;99.90;;;;;;5094362;28;20103;-38
2022/04/08 03:09:43;;;;;;;6.55;1.75;;;4.90;99.90;;;;;;5093323;28;20103;-37
2022/04/08 03:12:09;;;;;;;8.43;1.95;;;4.90;99.90;;;;;;5091840;28;20626;-37
2022/04/08 03:14:35;;;;;;;8.70;1.33;;;4.90;99.90;;;;;;5093931;28;20028;-38
2022/04/08 03:17:01;;;;;;;11.68;2.42;;;4.90;99.90;;;;;;5094786;28;20016;-36
2022/04/08 03:19:27;;;;;;;13.60;1.65;;;4.90;99.90;;;;;;5094746;28;20040;-44
2022/04/08 03:21:54;;;;;;;3.63;1.33;;;4.90;99.90;;;;;;5094829;28;20024;-38
2022/04/08 03:24:19;;;;;;;6.43;1.40;;;4.90;99.90;;;;;;5095029;28;20353;-37
2022/04/08 03:26:47;;;;;;;6.05;0.90;;;4.90;99.90;;;;;;5088832;28;20015;-37
2022/04/08 03:29:14;;;;;;;2.35;1.00;;;4.90;99.90;;;;;;5093690;28;20479;-36
2022/04/08 03:31:39;;;;;;;15.73;1.77;;;4.90;99.90;;;;;;5094138;28;20471;-37
2022/04/08 03:34:05;;;;;;;6.90;1.40;;;4.90;99.90;;;;;;5094640;28;20021;-38
2022/04/08 03:36:30;;;;;;;10.32;1.35;;;4.90;99.90;;;;;;5110188;28;20020;-36
2022/04/08 03:38:56;;;;;;;7.75;1.23;;;4.90;99.90;;;;;;5093942;28;20020;-37
2022/04/08 03:41:21;;;;;;;8.60;1.23;;;4.90;99.90;;;;;;5093775;28;20055;-36
2022/04/08 03:43:47;;;;;;;9.95;1.70;;;4.80;99.90;;;;;;5092640;28;20019;-36
2022/04/08 03:46:13;;;;;;;5.28;1.20;;;4.80;99.90;;;;;;5093622;28;20077;-36
2022/04/08 03:48:42;;;;;;;10.77;1.92;;;4.80;99.90;;;;;;5094370;28;20043;-36
2022/04/08 03:51:08;;;;;;;4.43;1.35;;;4.80;99.90;;;;;;5094382;28;20067;-36
2022/04/08 03:53:34;;;;;;;3.92;1.40;;;4.80;99.90;;;;;;5092788;28;20052;-36
2022/04/08 03:56:02;;;;;;;6.63;1.08;;;4.70;99.90;;;;;;5093387;28;20049;-35
2022/04/08 03:58:28;;;;;;;7.43;1.27;;;4.70;99.90;;;;;;5092330;28;20016;-38
2022/04/08 04:00:54;;;;;;;3.58;1.27;;;4.70;99.90;;;;;;5090356;28;20095;-36
2022/04/08 04:03:20;;;;;;;6.68;1.10;;;4.60;99.90;;;;;;5091275;28;20017;-37
2022/04/08 04:05:45;;;;;;;1.23;1.00;;;4.60;99.90;;;;;;5090786;28;20035;-37
2022/04/08 04:08:20;;;;;;;10.32;1.38;;;4.60;99.90;;;;;;5092751;28;20506;-37
2022/04/08 04:10:46;;;;;;;6.93;1.35;;;4.60;99.90;;;;;;5094242;28;20499;-36
2022/04/08 04:13:12;;;;;;;10.27;1.52;;;4.50;99.90;;;;;;5093051;28;20479;-37
2022/04/08 04:15:38;;;;;;;5.22;1.30;;;4.50;99.90;;;;;;5093152;28;20095;-36
2022/04/08 04:18:04;;;;;;;4.80;1.13;;;4.50;99.90;;;;;;5093622;28;20194;-36
2022/04/08 04:20:30;;;;;;;5.90;1.58;;;4.50;99.90;;;;;;5090002;28;20028;-41
2022/04/08 04:22:56;;;;;;;3.55;1.15;;;4.40;99.90;;;;;;5093726;28;20494;-48
2022/04/08 04:25:22;;;;;;;2.13;1.08;;;4.50;99.90;;;;;;5093678;28;20027;-36
2022/04/08 04:27:48;;;;;;;4.00;1.65;;;4.50;99.90;;;;;;5091680;28;20443;-38
2022/04/08 04:30:14;;;;;;;1.77;1.00;;;4.40;99.90;;;;;;5093066;28;20028;-36
2022/04/08 04:32:40;;;;;;;4.50;1.50;;;4.40;99.90;;;;;;5092119;28;20126;-36
2022/04/08 04:35:06;;;;;;;13.23;1.73;;;4.40;99.90;;;;;;5093415;28;20031;-36
2022/04/08 04:37:38;;;;;;;5.70;1.27;;;4.40;99.90;;;;;;5093524;28;20031;-36
2022/04/08 04:40:05;;;;;;;4.30;1.45;;;4.30;99.90;;;;;;5092318;28;20100;-36
2022/04/08 04:42:31;;;;;;;8.40;2.13;;;4.30;99.90;;;;;;5092424;28;20089;-35
2022/04/08 04:44:57;;;;;;;4.30;2.00;;;4.40;99.90;;;;;;5092176;28;20118;-38
2022/04/08 04:47:23;;;;;;;11.63;1.83;;;4.40;99.90;;;;;;5091831;28;20028;-36
2022/04/08 04:49:49;;;;;;;6.22;1.70;;;4.40;99.90;;;;;;5092934;28;20031;-37
2022/04/08 04:52:15;;;;;;;17.63;5.28;;;4.40;99.90;;;;;;5091630;28;20028;-35
2022/04/08 04:54:41;;;;;;;8.63;2.67;;;4.40;99.90;;;;;;5091741;28;20448;-37
2022/04/08 04:57:07;;;;;;;41.78;11.23;;;4.50;99.90;;;;;;5091109;28;20360;-36
2022/04/08 04:59:33;;;;;;;22.05;6.63;;;4.50;99.90;;;;;;5092614;28;20495;-35
2022/04/08 05:01:59;;;;;;;13.55;2.67;;;4.50;99.90;;;;;;5092406;28;20068;-36
2022/04/08 05:04:24;;;;;;;14.65;3.05;;;4.60;99.90;;;;;;5091202;28;20146;-37
2022/04/08 05:06:50;;;;;;;11.85;3.15;;;4.60;99.90;;;;;;5093141;28;20103;-37
2022/04/08 05:09:16;;;;;;;14.75;5.25;;;4.60;99.90;;;;;;5092966;28;20536;-45
2022/04/08 05:11:42;;;;;;;15.75;6.03;;;4.60;99.90;;;;;;5091390;28;20029;-36
2022/04/08 05:14:07;;;;;;;39.78;11.10;;;4.60;99.90;;;;;;5092235;28;20376;-36
2022/04/08 05:16:33;;;;;;;20.17;5.82;;;4.70;99.90;;;;;;5091116;28;20119;-36
2022/04/08 05:19:01;;;;;;;5.72;2.03;;;4.70;99.90;;;;;;5092979;28;20115;-38
2022/04/08 05:21:29;;;;;;;5.45;1.65;;;4.70;99.90;;;;;;5093070;28;20502;-38
2022/04/08 05:23:55;;;;;;;10.07;1.92;;;4.70;99.90;;;;;;5091974;28;20024;-36
2022/04/08 05:26:21;;;;;;;8.35;2.50;;;4.70;99.90;;;;;;5093075;28;20032;-38
2022/04/08 05:28:47;;;;;;;71.63;20.33;;;4.70;99.90;;;;;;5091310;28;20373;-37
2022/04/08 05:31:13;;;;;;;13.07;4.90;;;4.70;99.90;;;;;;5093859;28;20020;-37
2022/04/08 05:33:39;;;;;;;19.00;5.18;;;4.70;99.90;;;;;;5095439;28;20105;-36
2022/04/08 05:36:05;;;;;;;3.05;1.85;;;4.80;99.90;;;;;;5096437;28;20544;-36
2022/04/08 05:38:30;;;;;;;25.10;10.07;;;4.80;99.90;;;;;;5096270;28;20024;-37
2022/04/08 05:40:56;;;;;;;6.88;2.33;;;4.80;99.90;;;;;;5094640;28;20028;-38
2022/04/08 05:43:21;;;;;;;8.82;2.88;;;4.80;99.90;;;;;;5096033;28;20051;-38
2022/04/08 05:45:47;;;;;;;15.23;3.30;;;4.90;99.90;;;;;;5095757;28;20435;-36
2022/04/08 05:48:13;;;;;;;5.28;2.05;;;4.90;99.90;;;;;;5095729;28;20028;-37
2022/04/08 05:50:38;;;;;;;5.43;1.80;;;5.00;99.90;;;;;;5096616;28;20059;-36
2022/04/08 05:53:04;;;;;;;17.60;3.65;;;5.00;99.90;;;;;;5095206;28;20032;-37
2022/04/08 05:55:29;;;;;;;11.95;2.25;;;5.00;99.90;;;;;;5095767;28;20035;-36
2022/04/08 05:57:58;;;;;;;8.20;2.13;;;5.20;99.90;;;;;;5095688;28;20024;-36
2022/04/08 06:00:42;;;;;;;5.25;1.58;;;5.30;99.90;;;;;;5096431;28;20032;-37
2022/04/08 06:03:08;;;;;;;3.35;1.90;;;5.30;99.90;;;;;;5096551;28;20494;-36
2022/04/08 06:05:34;;;;;;;9.60;2.13;;;5.40;99.90;;;;;;5094234;28;20032;-35
2022/04/08 06:07:59;;;;;;;5.00;1.98;;;5.50;99.90;;;;;;5095912;28;20032;-36
2022/04/08 06:10:26;;;;;;;3.33;1.25;;;5.60;99.90;;;;;;5093977;28;20082;-36
2022/04/08 06:12:53;;;;;;;4.13;1.40;;;5.70;99.90;;;;;;5093988;28;20098;-35
2022/04/08 06:15:19;;;;;;;5.85;1.23;;;5.80;99.90;;;;;;5104614;28;20052;-37
2022/04/08 06:17:46;;;;;;;7.05;2.25;;;5.90;99.90;;;;;;5095138;28;20032;-36
2022/04/08 06:20:15;;;;;;;6.57;1.52;;;6.00;99.90;;;;;;5095566;28;20032;-44
2022/04/08 06:22:41;;;;;;;4.28;1.50;;;6.00;99.90;;;;;;5095465;28;20028;-37
2022/04/08 06:25:09;;;;;;;9.50;2.08;;;6.10;99.90;;;;;;5094836;28;20122;-39
2022/04/08 06:27:34;;;;;;;10.18;1.48;;;6.10;99.90;;;;;;5095201;28;20051;-37
2022/04/08 06:30:01;;;;;;;2.78;1.27;;;6.20;99.90;;;;;;5094849;28;20038;-37
2022/04/08 06:32:26;;;;;;;4.95;1.20;;;6.20;99.90;;;;;;5095695;28;20028;-36
2022/04/08 06:34:52;;;;;;;10.05;1.88;;;6.30;99.90;;;;;;5095693;28;20032;-35
2022/04/08 06:37:17;;;;;;;3.28;1.40;;;6.30;99.90;;;;;;5094358;28;20084;-36
2022/04/08 06:39:45;;;;;;;8.75;1.73;;;6.40;99.90;;;;;;5094272;28;20031;-37
2022/04/08 06:42:11;;;;;;;5.75;1.92;;;6.40;99.90;;;;;;5093345;28;20047;-37
2022/04/08 06:44:36;;;;;;;5.22;1.50;;;6.50;99.90;;;;;;5092348;28;20020;-36
2022/04/08 06:47:02;;;;;;;7.57;1.90;;;6.50;99.90;;;;;;5087840;28;20040;-36
2022/04/08 06:49:28;;;;;;;7.13;1.70;;;6.60;99.90;;;;;;5093457;28;20103;-37
2022/04/08 06:51:58;;;;;;;6.40;1.52;;;6.70;99.90;;;;;;5094570;28;20024;-36
2022/04/08 06:54:24;;;;;;;6.63;1.45;;;6.70;99.90;;;;;;5091272;28;20020;-35
2022/04/08 06:56:50;;;;;;;5.90;1.05;;;6.90;99.90;;;;;;5093730;28;20039;-35
2022/04/08 06:59:15;;;;;;;11.45;1.95;;;6.90;99.90;;;;;;5094994;28;20089;-37
2022/04/08 07:01:41;;;;;;;9.38;1.88;;;7.00;99.90;;;;;;5093973;28;20031;-40
2022/04/08 07:04:07;;;;;;;7.78;1.25;;;7.00;99.90;;;;;;5094972;28;20028;-36
2022/04/08 07:06:32;;;;;;;5.90;1.40;;;7.10;99.90;;;;;;5095171;28;20588;-38
2022/04/08 07:08:58;;;;;;;1.98;1.17;;;7.10;99.90;;;;;;5092148;28;20039;-40
2022/04/08 07:11:24;;;;;;;5.47;1.25;;;7.20;99.90;;;;;;5083641;28;20028;-36
2022/04/08 07:13:49;;;;;;;2.42;1.58;;;7.30;99.90;;;;;;5094673;28;20043;-38
2022/04/08 07:16:15;;;;;;;2.13;1.25;;;7.40;99.90;;;;;;5093557;28;20032;-38
2022/04/08 07:18:40;;;;;;;4.55;1.40;;;7.50;99.90;;;;;;5092861;28;20128;-37
2022/04/08 07:21:06;;;;;;;3.72;0.90;;;7.60;99.90;;;;;;5094910;28;20023;-57
2022/04/08 07:23:32;;;;;;;6.00;1.25;;;7.60;99.90;;;;;;5093893;28;20012;-37
2022/04/08 07:25:58;;;;;;;15.38;2.28;;;7.70;99.90;;;;;;5094775;28;20581;-38
2022/04/08 07:28:23;;;;;;;2.63;1.30;;;7.70;99.90;;;;;;5090421;28;20027;-38
2022/04/08 07:30:50;;;;;;;5.70;0.93;;;7.80;99.90;;;;;;5094450;28;20028;-39
2022/04/08 07:33:16;;;;;;;6.63;0.93;;;7.80;99.90;;;;;;5093135;28;20111;-37
2022/04/08 07:35:42;;;;;;;2.13;1.00;;;7.90;99.90;;;;;;5093815;28;20555;-38
2022/04/08 07:38:07;;;;;;;6.03;1.10;;;7.90;99.90;;;;;;5093521;28;20023;-37
2022/04/08 07:40:33;;;;;;;6.55;1.60;;;8.00;99.90;;;;;;5093494;28;20024;-37
2022/04/08 07:42:59;;;;;;;6.72;1.20;;;8.00;99.90;;;;;;5093470;28;20023;-38
2022/04/08 07:45:27;;;;;;;6.50;2.22;;;8.20;99.90;;;;;;5092703;28;20071;-35
2022/04/08 07:47:55;;;;;;;1.90;1.00;;;8.30;99.90;;;;;;5090595;28;20024;-37
2022/04/08 07:50:21;;;;;;;11.80;3.22;;;8.40;99.90;;;;;;5099919;28;20474;-37
2022/04/08 07:52:47;;;;;;;3.22;0.85;;;8.40;99.90;;;;;;5093629;28;20028;-38
2022/04/08 07:55:13;;;;;;;7.10;1.33;;;8.50;99.90;;;;;;5091749;28;20081;-36
2022/04/08 07:57:51;;;;;;;2.67;1.13;;;8.70;99.90;;;;;;5093080;28;20031;-38
2022/04/08 08:00:20;;;;;;;8.65;1.77;;;8.80;99.90;;;;;;5093259;28;20498;-38
2022/04/08 08:02:45;;;;;;;;;;;8.90;99.90;;;;;;5093765;28;20028;-37
2022/04/08 08:05:12;;;;;;;9.45;1.33;;;9.00;99.90;;;;;;5093177;28;19908;-37
2022/04/08 08:07:47;;;;;;;6.53;1.30;;;9.10;99.90;;;;;;5093784;28;20035;-38
2022/04/08 08:10:17;;;;;;;10.38;1.23;;;9.10;99.90;;;;;;5093369;28;20464;-37
2022/04/08 08:12:43;;;;;;;11.93;1.10;;;9.30;99.90;;;;;;5093893;28;20059;-37
2022/04/08 08:15:10;;;;;;;3.20;1.75;;;9.30;99.90;;;;;;5093503;28;20056;-38
2022/04/08 08:17:36;;;;;;;5.30;1.50;;;9.40;99.90;;;;;;5090677;28;20506;-38
2022/04/08 08:20:02;;;;;;;6.13;2.47;;;9.50;99.90;;;;;;5089685;28;20059;-38
2022/04/08 08:22:29;;;;;;;4.00;2.08;;;9.60;99.90;;;;;;5092059;28;20024;-43
2022/04/08 08:24:54;;;;;;;10.98;1.13;;;9.50;99.90;;;;;;5084930;28;20135;-42
2022/04/08 08:27:20;;;;;;;6.93;1.27;;;9.60;99.90;;;;;;5084718;28;20028;-36
2022/04/08 08:29:46;;;;;;;12.10;1.27;;;9.60;99.90;;;;;;5091473;28;20036;-36
2022/04/08 08:32:11;;;;;;;8.25;1.30;;;9.60;99.90;;;;;;5087901;28;20031;-36
2022/04/08 08:34:37;;;;;;;6.78;1.70;;;9.60;99.90;;;;;;5092419;28;20032;-37
2022/04/08 08:37:03;;;;;;;10.20;1.52;;;9.70;99.90;;;;;;5092793;28;20145;-38
2022/04/08 08:39:28;;;;;;;9.95;1.35;;;9.80;99.90;;;;;;5091788;28;20096;-37
2022/04/08 08:41:57;;;;;;;7.90;1.20;;;9.80;99.90;;;;;;5091873;28;20028;-36
2022/04/08 08:44:23;;;;;;;4.50;1.00;;;9.90;99.90;;;;;;5092615;28;20020;-38
2022/04/08 08:46:49;;;;;;;11.02;1.25;;;9.80;99.90;;;;;;5093108;28;20035;-37
2022/04/08 08:49:19;;;;;;;5.85;1.20;;;9.90;99.90;;;;;;5092839;28;20028;-37
2022/04/08 08:51:55;;;;;;;5.03;1.27;;;9.70;99.90;;;;;;5088385;28;20440;-36
2022/04/08 08:54:39;;;;;;;7.65;1.02;;;9.60;99.90;;;;;;5092577;28;20047;-41
2022/04/08 08:57:05;;;;;;;3.13;1.05;;;9.50;99.90;;;;;;5091354;28;20024;-38
2022/04/08 08:59:31;;;;;;;9.43;1.48;;;9.50;99.90;;;;;;5093017;28;20111;-40
2022/04/08 09:02:01;;;;;;;9.15;1.00;;;9.50;99.90;;;;;;5089962;28;20099;-38
2022/04/08 09:04:27;;;;;;;1.35;0.65;;;9.70;99.90;;;;;;5091233;28;20047;-35
2022/04/08 09:06:53;;;;;;;7.60;1.10;;;9.70;99.90;;;;;;5095175;28;20059;-36
2022/04/08 09:09:31;;;;;;;5.03;1.13;;;9.50;99.90;;;;;;5097006;28;20020;-38
2022/04/08 09:12:17;;;;;;;17.02;2.03;;;9.50;99.90;;;;;;5097734;28;20137;-39
2022/04/08 09:14:50;;;;;;;2.35;0.88;;;9.70;99.90;;;;;;5096711;28;20024;-40
2022/04/08 09:17:18;;;;;;;7.68;1.25;;;9.90;99.90;;;;;;5095140;28;20051;-37
2022/04/08 09:19:50;;;;;;;7.53;1.13;;;10.10;99.90;;;;;;5096167;28;20556;-38
2022/04/08 09:22:16;;;;;;;4.18;1.00;;;10.10;99.90;;;;;;5095185;28;20035;-36
2022/04/08 09:24:42;;;;;;;6.88;1.13;;;10.10;99.90;;;;;;5095369;28;20108;-37
2022/04/08 09:27:08;;;;;;;8.23;1.10;;;9.90;99.90;;;;;;5095986;28;20024;-36
2022/04/08 09:29:34;;;;;;;3.88;0.70;;;9.80;99.90;;;;;;5094942;28;20085;-37
2022/04/08 09:31:59;;;;;;;1.70;0.63;;;9.90;99.90;;;;;;5095703;28;20503;-33
2022/04/08 09:34:25;;;;;;;4.20;1.20;;;10.00;99.90;;;;;;5095645;28;20020;-44
2022/04/08 09:36:51;;;;;;;5.78;0.70;;;9.90;99.90;;;;;;5097026;28;20096;-38
2022/04/08 09:39:17;;;;;;;1.40;1.13;;;10.00;99.90;;;;;;5086009;28;20396;-37
2022/04/08 09:41:45;;;;;;;2.13;0.85;;;10.10;99.90;;;;;;5093269;28;20114;-36
2022/04/08 09:44:20;;;;;;;9.35;1.15;;;10.10;99.90;;;;;;5090041;28;20077;-39
2022/04/08 09:46:45;;;;;;;7.22;1.23;;;10.20;99.90;;;;;;5096325;28;20472;-39
2022/04/08 09:49:11;;;;;;;8.38;1.65;;;10.20;99.90;;;;;;5096542;28;20110;-37
2022/04/08 09:51:39;;;;;;;9.52;1.02;;;10.20;99.90;;;;;;5095514;28;20494;-38
2022/04/08 09:54:08;;;;;;;;;;;10.20;99.90;;;;;;5095363;28;20078;-38
2022/04/08 09:56:35;;;;;;;7.03;0.90;;;10.20;99.90;;;;;;5091721;28;19956;-38
2022/04/08 09:59:12;;;;;;;5.68;1.25;;;10.10;99.90;;;;;;5095062;28;20234;-37
2022/04/08 10:01:38;;;;;;;3.25;0.85;;;10.10;99.90;;;;;;5094991;28;20468;-36
2022/04/08 10:04:05;;;;;;;2.70;0.47;;;10.10;99.90;;;;;;5095994;28;20451;-38
2022/04/08 10:06:31;;;;;;;2.90;0.40;;;10.10;99.90;;;;;;5096396;28;20051;-40
2022/04/08 10:08:59;;;;;;;3.47;1.00;;;10.20;99.90;;;;;;5096226;28;20032;-37
2022/04/08 10:11:51;;;;;;;5.00;1.67;;;10.10;99.90;;;;;;5095539;28;20020;-38
2022/04/08 10:14:46;;;;;;;8.10;1.10;;;9.90;99.90;;;;;;5096320;28;20313;-38
2022/04/08 10:17:13;;;;;;;9.88;0.90;;;9.90;99.90;;;;;;5092320;28;20044;-38
2022/04/08 10:19:39;;;;;;;11.32;1.10;;;9.80;99.90;;;;;;5092031;28;20047;-38
2022/04/08 10:22:16;;;;;;;10.85;1.02;;;9.90;99.90;;;;;;5092240;28;20020;-37
2022/04/08 10:24:53;;;;;;;3.33;0.80;;;9.90;99.90;;;;;;5091447;28;20028;-37
2022/04/08 10:27:29;;;;;;;8.52;0.93;;;9.80;99.90;;;;;;5091263;28;20374;-37
2022/04/08 10:29:55;;;;;;;9.25;0.93;;;9.70;99.90;;;;;;5095050;28;20028;-37
2022/04/08 10:32:21;;;;;;;7.47;1.23;;;9.90;99.90;;;;;;5091955;28;20031;-38
2022/04/08 10:34:47;;;;;;;11.50;1.35;;;10.20;99.90;;;;;;5095091;28;20024;-38
2022/04/08 10:37:21;;;;;;;7.20;1.35;;;10.20;99.90;;;;;;5095873;28;20023;-37
2022/04/08 10:40:02;;;;;;;7.03;0.88;;;10.30;99.90;;;;;;5095723;28;20122;-38
2022/04/08 10:42:29;;;;;;;11.20;1.38;;;10.40;99.90;;;;;;5095514;28;20024;-38
2022/04/08 10:44:55;;;;;;;3.20;1.02;;;10.60;99.90;;;;;;5095475;28;20024;-38
2022/04/08 10:47:21;;;;;;;9.60;2.17;;;10.60;99.90;;;;;;5095524;28;20031;-38
2022/04/08 10:49:51;;;;;;;4.45;1.58;;;10.60;99.90;;;;;;5095522;28;20020;-46
2022/04/08 10:52:28;;;;;;;3.95;0.77;;;10.20;99.90;;;;;;5095498;28;20024;-46
2022/04/08 10:55:11;;;;;;;5.25;1.40;;;9.90;99.90;;;;;;5095341;28;20059;-39
2022/04/08 10:57:42;;;;;;;3.78;1.67;;;9.90;99.90;;;;;;5095492;28;20024;-39
2022/04/08 11:00:12;;;;;;;2.05;1.13;;;9.90;99.90;;;;;;5095554;28;20020;-37
2022/04/08 11:02:40;;;;;;;7.72;1.63;;;10.10;99.90;;;;;;5095233;28;20388;-39
2022/04/08 11:05:12;;;;;;;;;;;10.10;99.90;;;;;;5095620;28;20103;-40
2022/04/08 11:07:42;;;;;;;5.78;1.35;;;10.10;99.90;;;;;;5095299;28;20367;-39
2022/04/08 11:10:14;;;;;;;7.03;1.20;;;10.00;99.90;;;;;;5095147;28;20476;-41
2022/04/08 11:12:49;;;;;;;5.15;1.40;;;9.90;99.90;;;;;;5095093;28;20024;-52
2022/04/08 11:15:19;;;;;;;5.03;1.33;;;10.00;99.90;;;;;;5094907;28;20028;-39
2022/04/08 11:17:46;;;;;;;8.48;1.20;;;10.00;99.90;;;;;;5094609;28;20094;-60
2022/04/08 11:20:18;;;;;;;4.43;1.08;;;10.20;99.90;;;;;;5095234;28;20475;-37
2022/04/08 11:22:55;;;;;;;9.02;1.08;;;10.40;99.90;;;;;;5095154;28;20538;-40
2022/04/08 11:25:38;;;;;;;4.35;0.93;;;10.30;99.90;;;;;;5094893;28;20639;-39
2022/04/08 11:28:06;;;;;;;2.45;0.85;;;10.20;99.90;;;;;;5094948;28;20024;-38
2022/04/08 11:30:34;;;;;;;7.53;0.88;;;10.00;99.90;;;;;;5094080;28;20488;-39
2022/04/08 11:33:00;;;;;;;3.75;1.50;;;10.10;99.90;;;;;;5094634;28;20027;-37
2022/04/08 11:35:31;;;;;;;4.85;0.90;;;10.20;99.90;;;;;;5094424;28;20024;-42
2022/04/08 11:37:58;;;;;;;11.48;2.08;;;10.20;99.90;;;;;;5094541;28;20068;-38
2022/04/08 11:40:24;;;;;;;4.05;1.17;;;10.20;99.90;;;;;;5094576;28;20472;-38
2022/04/08 11:42:50;;;;;;;7.05;0.90;;;10.20;99.90;;;;;;5094512;28;20020;-38
2022/04/08 11:45:16;;;;;;;11.18;1.40;;;10.00;99.90;;;;;;5094661;28;20024;-38
2022/04/08 11:47:47;;;;;;;10.02;1.05;;;10.10;99.90;;;;;;5094349;28;20020;-38
2022/04/08 11:50:13;;;;;;;6.45;1.20;;;10.10;99.90;;;;;;5094578;28;20391;-38
2022/04/08 11:52:39;;;;;;;3.85;0.80;;;10.30;99.90;;;;;;5094517;28;20494;-39
2022/04/08 11:55:06;;;;;;;7.72;0.88;;;10.10;99.90;;;;;;5094362;28;20020;-39
2022/04/08 11:57:34;;;;;;;7.38;0.93;;;9.90;99.90;;;;;;5094173;28;20024;-37
2022/04/08 12:00:03;;;;;;;10.10;0.90;;;9.90;99.90;;;;;;5094194;28;20383;-38
2022/04/08 12:02:31;;;;;;;2.25;1.15;;;9.90;99.90;;;;;;5094052;28;20024;-39
2022/04/08 12:04:57;;;;;;;6.00;1.00;;;10.10;99.90;;;;;;5094044;28;20597;-38
2022/04/08 12:07:24;;;;;;;4.32;0.95;;;10.20;99.90;;;;;;5093928;28;20040;-39
2022/04/08 12:09:52;;;;;;;1.20;0.68;;;10.30;99.90;;;;;;5093808;28;20541;-37
2022/04/08 12:12:25;;;;;;;5.88;0.82;;;10.40;99.90;;;;;;5094029;28;20028;-37
2022/04/08 12:14:51;;;;;;;1.67;0.82;;;10.40;99.90;;;;;;5094082;28;20379;-37
2022/04/08 12:17:17;;;;;;;1.70;0.80;;;10.20;99.90;;;;;;5093781;28;20098;-38
2022/04/08 12:19:47;;;;;;;2.58;1.85;;;10.40;99.90;;;;;;5093583;28;20080;-36
2022/04/08 12:22:15;;;;;;;3.33;1.20;;;10.60;99.90;;;;;;5093753;28;20024;-37
2022/04/08 12:24:47;;;;;;;3.08;0.75;;;10.60;99.90;;;;;;5093803;28;20028;-38
2022/04/08 12:27:17;;;;;;;9.63;1.17;;;10.80;99.90;;;;;;5092317;28;20479;-37
2022/04/08 12:29:45;;;;;;;5.93;1.23;;;10.80;99.90;;;;;;5093582;28;20024;-37
2022/04/08 12:32:15;;;;;;;3.90;1.00;;;10.70;99.90;;;;;;5093570;28;20048;-51
2022/04/08 12:34:43;;;;;;;6.00;1.15;;;10.50;99.90;;;;;;5093417;28;20035;-39
2022/04/08 12:37:09;;;;;;;11.85;1.63;;;10.40;99.90;;;;;;5093442;28;20028;-39
2022/04/08 12:39:34;;;;;;;2.50;0.80;;;10.10;99.90;;;;;;5093464;28;20020;-40
2022/04/08 12:42:01;;;;;;;5.13;1.00;;;10.10;99.90;;;;;;5093344;28;20392;-38
2022/04/08 12:44:27;;;;;;;4.07;1.23;;;10.20;99.90;;;;;;5093361;28;20024;-39
2022/04/08 12:46:54;;;;;;;5.28;0.93;;;10.40;99.90;;;;;;5093401;28;20088;-39
2022/04/08 12:49:20;;;;;;;4.95;1.55;;;10.40;99.90;;;;;;5093380;28;20032;-40
2022/04/08 12:51:46;;;;;;;7.50;1.30;;;10.50;99.90;;;;;;5093496;28;20380;-43
2022/04/08 12:54:12;;;;;;;6.40;1.75;;;10.50;99.90;;;;;;5093339;28;20035;-39